Impacts TAF Board
For situational awareness. Not to be used for flight planning purposes.
IDs:

KDTW - Detroit Metro/Wayne, MI, US

Issued at 1920 UTC 20 Sep 2018
Updated at 2006 UTC 20 Sep 2018
Potential Impact None Slight Moderate High
Time<<21/21Z 21/22Z 21/23Z 22/00Z 22/01Z 22/02Z 22/03Z 22/04Z 22/05Z 22/06Z 22/07Z 22/08Z 22/09Z
Type PRVL PRVL PRVL
VIS >6 >6 >6
CIG 50 50 50
Cover BKN BKN BKN
FltCat VFR VFR VFR
WX VCSH VCSH VCSH
WDir 250 250 250
WSpd 20 20 20
WGst 32 32 32
Raw TAF
KDTW 201920Z 2019/2124 12008KT P6SM FEW010 SCT050 BKN080
  TEMPO 2019/2020 SCT015 BKN100
  FM202000 14008KT P6SM VCTS SCT025 BKN040CB BKN070
  FM210000 14007KT P6SM SCT070 SCT150
  FM210400 20011KT P6SM SCT070 SCT150 WS020/20045KT
  FM211400 23018G28KT P6SM BKN100
  FM211700 25020G32KT P6SM VCSH BKN050 BKN100
  PROB30 2117/2121 4SM -TSRA BKN035CB OVC050


METAR Board
Radar Display
Forecast Discussion
For situational awareness. Not to be used for flight planning purposes.